Orion — JD3053 — position and weather

sailwx.info

Track history (hours):
 
Tides and Currents Weather Stations Pressure Air Temp Water Temp Dewpoint Dewpoint Depression Visibility Wind Speed Wind Dir Waves Ship Positions

Orion

Last reported at 2018-Jul-15 21:30 UTC. Time now 2018-Jul-16 10:34 UTC.
Position N 35°27' E 139°40'.

Length 30 m; draft 2.9 m.

Type: Pilot. MMSI: 431001618.

Date/timePositionNaut miles runAvg speedWind from/ knotsBaromVisibWave heightAir tempDewpointWater temp
2018-Jul-15 21:30N 35°27' E 139°40'5 9.9
2018-Jul-15 21:00N 35°25' E 139°46'510.5
2018-Jul-15 20:30N 35°20' E 139°44'611.7
2018-Jul-15 20:00N 35°15' E 139°47'510.4
2018-Jul-15 19:30N 35°10' E 139°47'510.7
2018-Jul-15 19:00N 35°15' E 139°45'612.1
2018-Jul-15 18:30N 35°19' E 139°40'1 1.0
2018-Jul-15 18:00N 35°19' E 139°39'0 0.0
2018-Jul-15 12:45N 35°19' E 139°39'1 5.4
2018-Jul-15 12:30N 35°19' E 139°41'713.1
2018-Jul-15 12:00N 35°13' E 139°45'3 6.1
2018-Jul-15 11:30N 35°17' E 139°45'611.4
2018-Jul-15 11:00N 35°22' E 139°42'3 6.0
2018-Jul-15 10:30N 35°24' E 139°44'2 3.8
2018-Jul-15 10:00N 35°26' E 139°43'3 5.4
2018-Jul-15 09:30N 35°27' E 139°40'0 0.0
2018-Jul-15 09:00N 35°27' E 139°40'0 0.0
2018-Jul-15 08:30N 35°27' E 139°40'0 0.0
2018-Jul-14 11:26N 35°27' E 139°40'2 5.6
2018-Jul-14 11:01N 35°25' E 139°42'714.2
2018-Jul-14 10:31N 35°18' E 139°43'612.1
2018-Jul-14 10:00N 35°13' E 139°46'611.5
2018-Jul-14 09:30N 35°18' E 139°44'612.5
2018-Jul-14 09:01N 35°24' E 139°43'2 4.1
2018-Jul-14 08:30N 35°25' E 139°45'4 7.2
2018-Jul-14 08:01N 35°27' E 139°42'2 3.3
2018-Jul-14 07:30N 35°27' E 139°40'0 0.0
2018-Jul-14 07:00N 35°27' E 139°40'0 0.0
2018-Jul-14 06:30N 35°27' E 139°40'0 0.0
2018-Jul-14 06:00N 35°27' E 139°40'0 0.0
2018-Jul-14 05:30N 35°27' E 139°40'3 5.0
2018-Jul-14 05:00N 35°25' E 139°42'815.0
2018-Jul-14 04:30N 35°18' E 139°43'510.1
2018-Jul-14 04:00N 35°13' E 139°46'612.0
2018-Jul-14 03:31N 35°19' E 139°43'5 9.8
2018-Jul-14 03:01N 35°23' E 139°41'1 1.9
2018-Jul-14 02:30N 35°24' E 139°42'3 6.2
2018-Jul-14 02:00N 35°27' E 139°40'0 0.0
2018-Jul-14 01:29N 35°27' E 139°40'0 0.0
2018-Jul-14 01:00N 35°27' E 139°40'0 0.0
2018-Jul-14 00:30N 35°27' E 139°40'0 0.0
2018-Jul-14 00:00N 35°27' E 139°40'0 0.0
2018-Jul-13 23:30N 35°27' E 139°40'0 0.0
2018-Jul-13 23:00N 35°27' E 139°40'0 0.0
2018-Jul-13 22:30N 35°27' E 139°40'0 0.0
2018-Jul-13 21:59N 35°27' E 139°40'0 0.0
2018-Jul-13 21:30N 35°27' E 139°40'0 0.0
2018-Jul-13 21:00N 35°27' E 139°40'0 0.0
2018-Jul-13 20:30N 35°27' E 139°40'0 0.0
2018-Jul-13 20:00N 35°27' E 139°40'0 0.0
2018-Jul-13 19:30N 35°27' E 139°40'0 0.0
2018-Jul-13 19:00N 35°27' E 139°40'0 0.0
2018-Jul-13 18:30N 35°27' E 139°40'0 0.0
2018-Jul-13 18:00N 35°27' E 139°40'0 0.0
2018-Jul-13 17:30N 35°27' E 139°40'0 0.0
2018-Jul-13 17:00N 35°27' E 139°40'0 0.0
2018-Jul-13 16:30N 35°27' E 139°40'0 0.0
2018-Jul-13 16:00N 35°27' E 139°40'0 0.0
2018-Jul-13 15:30N 35°27' E 139°40'0 0.0
2018-Jul-13 15:00N 35°27' E 139°40'0 0.0
2018-Jul-13 14:30N 35°27' E 139°40'0 0.0
2018-Jul-13 13:30N 35°27' E 139°40'0 0.0
2018-Jul-13 13:00N 35°27' E 139°40'0 0.0
2018-Jul-13 12:30N 35°27' E 139°40'0 0.0
2018-Jul-13 12:00N 35°27' E 139°40'0 0.0
2018-Jul-13 11:30N 35°27' E 139°40'0 0.0
2018-Jul-13 11:00N 35°27' E 139°40'0 0.0
2018-Jul-13 10:30N 35°27' E 139°40'0 0.0
2018-Jul-13 10:00N 35°27' E 139°40'0 0.0
2018-Jul-13 09:30N 35°27' E 139°40'0 0.0
2018-Jul-13 09:00N 35°27' E 139°40'0 0.1
2018-Jul-13 08:30N 35°27' E 139°40'510.5
2018-Jul-13 08:01N 35°22' E 139°42'815.3
2018-Jul-13 07:31N 35°15' E 139°46'1 1.6
2018-Jul-13 07:00N 35°14' E 139°46'3 5.4
2018-Jul-13 06:30N 35°17' E 139°45'3 6.5
2018-Jul-13 06:01N 35°19' E 139°43'611.5
2018-Jul-13 05:30N 35°25' E 139°46'510.5
2018-Jul-13 05:00N 35°20' E 139°44'611.2
2018-Jul-13 04:30N 35°15' E 139°47'4 8.5
2018-Jul-13 04:01N 35°10' E 139°47'4 8.7
2018-Jul-13 03:30N 35°15' E 139°46'612.7
2018-Jul-13 03:00N 35°20' E 139°42'613.0
2018-Jul-13 02:30N 35°27' E 139°41'1 2.7
2018-Jul-13 02:00N 35°27' E 139°40'0 0.0
2018-Jul-13 01:30N 35°27' E 139°40'0 0.0
2018-Jul-13 01:00N 35°27' E 139°40'0 0.0
2018-Jul-13 00:30N 35°27' E 139°40'0 0.0
2018-Jul-12 23:59N 35°27' E 139°40'0 0.0
2018-Jul-12 23:30N 35°27' E 139°40'0 0.0
2018-Jul-12 23:00N 35°27' E 139°40'0 0.0
2018-Jul-12 22:30N 35°27' E 139°40'0 0.0
2018-Jul-12 22:01N 35°27' E 139°40'0 0.0
2018-Jul-12 21:30N 35°27' E 139°40'0 0.0
2018-Jul-12 21:01N 35°27' E 139°40'0 0.0
2018-Jul-12 20:31N 35°27' E 139°40'0 0.0
2018-Jul-12 19:59N 35°27' E 139°40'0 0.0
2018-Jul-12 19:30N 35°27' E 139°40'0 0.0
2018-Jul-12 19:01N 35°27' E 139°40'0 0.0
2018-Jul-12 18:31N 35°27' E 139°40'0 0.0
2018-Jul-12 18:01N 35°27' E 139°40'0 0.0
2018-Jul-12 17:31N 35°27' E 139°40'0 0.0
2018-Jul-12 16:59N 35°27' E 139°40'0 0.0
2018-Jul-12 16:30N 35°27' E 139°40'0 0.0
2018-Jul-12 16:00N 35°27' E 139°40'0 0.0
2018-Jul-12 15:30N 35°27' E 139°40'0 0.0
2018-Jul-12 15:00N 35°27' E 139°40'0 0.0
2018-Jul-12 14:30N 35°27' E 139°40'0 0.0
2018-Jul-12 14:00N 35°27' E 139°40'0 0.0
2018-Jul-12 13:30N 35°27' E 139°40'0 0.0
2018-Jul-12 13:01N 35°27' E 139°40'5 9.3
2018-Jul-12 12:31N 35°22' E 139°42'612.1
2018-Jul-12 12:00N 35°17' E 139°45'612.1
2018-Jul-12 11:30N 35°11' E 139°47'1 2.9
2018-Jul-12 11:00N 35°12' E 139°46'713.5
2018-Jul-12 10:30N 35°18' E 139°42'2 4.9
2018-Jul-12 10:00N 35°19' E 139°39'0 0.0
2018-Jul-12 09:30N 35°19' E 139°39'0 0.0
2018-Jul-12 09:00N 35°19' E 139°39'0 0.1
2018-Jul-12 08:30N 35°19' E 139°39'0 0.0
2018-Jul-12 08:00N 35°19' E 139°39'0 0.1
2018-Jul-12 07:30N 35°19' E 139°39'0 0.0
2018-Jul-12 07:00N 35°19' E 139°39'0 0.0
2018-Jul-12 06:30N 35°19' E 139°39'0 0.0
2018-Jul-12 06:00N 35°19' E 139°39'0 0.0
2018-Jul-12 05:30N 35°19' E 139°39'0 0.0
2018-Jul-12 05:00N 35°19' E 139°39'0 0.0
2018-Jul-12 04:30N 35°19' E 139°39'0 0.0
2018-Jul-12 04:00N 35°19' E 139°39'1 3.0
2018-Jul-12 03:30N 35°19' E 139°41'713.9
2018-Jul-12 02:59N 35°13' E 139°46'3 5.9
2018-Jul-12 02:30N 35°16' E 139°46'4 8.8
2018-Jul-12 02:00N 35°19' E 139°43'4 7.9
2018-Jul-12 01:30N 35°23' E 139°42'4 9.0
2018-Jul-12 01:01N 35°27' E 139°40'1 1.6
2018-Jul-12 00:30N 35°27' E 139°40'0 0.1
2018-Jul-12 00:00N 35°27' E 139°40'0 0.0
2018-Jul-11 23:29N 35°27' E 139°40'0 0.0
2018-Jul-11 23:00N 35°27' E 139°40'0 0.0
2018-Jul-11 22:30N 35°27' E 139°40'0 0.0
2018-Jul-11 22:00N 35°27' E 139°40'0 0.0
2018-Jul-11 21:30N 35°27' E 139°40'0 0.0
2018-Jul-11 21:00N 35°27' E 139°40'0 0.0
2018-Jul-11 20:30N 35°27' E 139°40'0 0.0
2018-Jul-11 20:00N 35°27' E 139°40'0 0.0
2018-Jul-11 19:30N 35°27' E 139°40'0 0.0
2018-Jul-11 19:00N 35°27' E 139°40'0 0.0
2018-Jul-11 18:30N 35°27' E 139°40'0 0.0
2018-Jul-11 18:00N 35°27' E 139°40'0 0.0
2018-Jul-11 17:30N 35°27' E 139°40'0 0.0
2018-Jul-11 17:00N 35°27' E 139°40'0 0.0
2018-Jul-11 16:30N 35°27' E 139°40'0 0.0
2018-Jul-11 16:00N 35°27' E 139°40'0 0.0
2018-Jul-11 15:30N 35°27' E 139°40'0 0.0
2018-Jul-11 15:00N 35°27' E 139°40'0 0.0
2018-Jul-11 14:30N 35°27' E 139°40'0 0.0
2018-Jul-10 08:18N 35°27' E 139°40'2 7.0
2018-Jul-10 08:01N 35°27' E 139°42'714.5
2018-Jul-10 07:30N 35°19' E 139°41'713.8
2018-Jul-10 07:00N 35°14' E 139°46'2 4.4
2018-Jul-10 06:30N 35°16' E 139°46'611.6
2018-Jul-10 06:00N 35°21' E 139°42'611.3
2018-Jul-10 05:30N 35°26' E 139°44'3 5.1
2018-Jul-10 05:00N 35°29' E 139°45'1 1.8
2018-Jul-10 04:30N 35°28' E 139°44'4 8.0
2018-Jul-10 04:00N 35°27' E 139°40'0 0.0
2018-Jul-10 03:30N 35°27' E 139°40'0 0.0
2018-Jul-10 03:00N 35°27' E 139°40'0 0.0
2018-Jul-10 02:30N 35°27' E 139°40'0 0.0
2018-Jul-10 01:59N 35°27' E 139°40'0 0.0
2018-Jul-10 01:31N 35°27' E 139°40'0 0.0
2018-Jul-10 01:01N 35°27' E 139°40'0 0.0
2018-Jul-10 00:30N 35°27' E 139°40'0 0.0
2018-Jul-10 00:00N 35°27' E 139°40'3 5.9
2018-Jul-09 23:30N 35°24' E 139°42'714.4
2018-Jul-09 23:00N 35°17' E 139°44'4 8.8
2018-Jul-09 22:30N 35°13' E 139°46'611.5
2018-Jul-09 22:00N 35°19' E 139°43'612.8
2018-Jul-09 21:30N 35°25' E 139°44'1 2.8
2018-Jul-09 20:59N 35°25' E 139°45'4 7.7
2018-Jul-09 20:30N 35°22' E 139°43'4 8.0
2018-Jul-09 20:00N 35°19' E 139°39'0 0.0
2018-Jul-09 19:30N 35°19' E 139°39'0 0.0
2018-Jul-09 18:59N 35°19' E 139°39'0 0.0
2018-Jul-09 18:30N 35°19' E 139°39'0 0.0
2018-Jul-09 18:00N 35°19' E 139°39'0 0.0
2018-Jul-09 17:29N 35°19' E 139°39'0 0.0
2018-Jul-09 16:59N 35°19' E 139°39'0 0.0
2018-Jul-09 16:30N 35°19' E 139°39'0 0.1
2018-Jul-09 16:00N 35°19' E 139°39'0 0.1
2018-Jul-09 15:30N 35°19' E 139°39'4 7.8
2018-Jul-09 15:00N 35°17' E 139°43'4 8.3
2018-Jul-09 14:30N 35°14' E 139°46'612.1
2018-Jul-09 14:00N 35°19' E 139°43'4 8.5
2018-Jul-09 13:31N 35°23' E 139°41'1 1.9
2018-Jul-09 13:00N 35°24' E 139°40'2 4.0
2018-Jul-09 12:30N 35°25' E 139°42'3 5.6
2018-Jul-09 12:00N 35°27' E 139°40'0 0.0
2018-Jul-09 11:30N 35°27' E 139°40'0 0.0
2018-Jul-09 11:00N 35°27' E 139°40'0 0.0
2018-Jul-09 10:30N 35°27' E 139°40'0 0.0
2018-Jul-09 10:00N 35°27' E 139°40'0 0.0
2018-Jul-09 09:30N 35°27' E 139°40'0 0.0
2018-Jul-09 09:00N 35°27' E 139°40'0 0.0
2018-Jul-09 08:30N 35°27' E 139°40'0 0.0
2018-Jul-09 08:00N 35°27' E 139°40'0 0.0
2018-Jul-09 07:30N 35°27' E 139°40'0 0.0
2018-Jul-09 07:00N 35°27' E 139°40'0 0.0
2018-Jul-09 06:30N 35°27' E 139°40'0 0.0
2018-Jul-09 06:00N 35°27' E 139°40'0 0.0
2018-Jul-09 05:30N 35°27' E 139°40'0 0.0
2018-Jul-09 05:00N 35°27' E 139°40'0 0.0
2018-Jul-09 04:30N 35°27' E 139°40'4 7.6
2018-Jul-09 04:00N 35°23' E 139°42'612.2
2018-Jul-09 03:29N 35°18' E 139°45'612.0
2018-Jul-09 03:01N 35°12' E 139°47'1 1.1
2018-Jul-09 02:30N 35°11' E 139°47'713.0
2018-Jul-09 02:00N 35°17' E 139°43'4 7.6
2018-Jul-09 01:30N 35°19' E 139°39'0 0.0
2018-Jul-09 01:01N 35°19' E 139°39'0 0.0
2018-Jul-09 00:31N 35°19' E 139°39'0 0.0
2018-Jul-09 00:00N 35°19' E 139°39'0 0.0
2018-Jul-08 23:31N 35°19' E 139°39'0 0.0
2018-Jul-08 23:00N 35°19' E 139°39'0 0.0
2018-Jul-08 22:29N 35°19' E 139°39'2 3.2
2018-Jul-08 22:00N 35°19' E 139°41'4 7.0
2018-Jul-08 21:30N 35°18' E 139°45'611.7
2018-Jul-08 21:00N 35°12' E 139°47'1 2.7
2018-Jul-08 20:30N 35°11' E 139°47'714.0
2018-Jul-08 19:59N 35°17' E 139°43'4 7.9
2018-Jul-08 19:31N 35°19' E 139°39'0 0.0
2018-Jul-08 19:01N 35°19' E 139°39'0 0.0
2018-Jul-08 18:30N 35°19' E 139°39'0 0.0
2018-Jul-08 18:00N 35°19' E 139°39'0 0.0
2018-Jul-08 17:31N 35°19' E 139°39'0 0.0
2018-Jul-08 17:00N 35°19' E 139°39'0 0.0
2018-Jul-08 16:28N 35°19' E 139°39'0 0.1
2018-Jul-08 16:01N 35°19' E 139°39'0 0.1
2018-Jul-08 15:31N 35°19' E 139°39'0 0.0
2018-Jul-08 15:00N 35°19' E 139°39'0 0.0
2018-Jul-08 14:30N 35°19' E 139°39'0 0.0
2018-Jul-08 14:00N 35°19' E 139°39'0 0.0
2018-Jul-08 13:30N 35°19' E 139°39'0 0.0
2018-Jul-08 13:01N 35°19' E 139°39'0 0.1
2018-Jul-08 12:30N 35°19' E 139°39'0 0.1
2018-Jul-08 12:00N 35°19' E 139°39'0 0.0
2018-Jul-08 11:31N 35°19' E 139°39'1 1.7
2018-Jul-08 11:00N 35°19' E 139°40'3 5.3
2018-Jul-08 10:30N 35°19' E 139°43'612.5
2018-Jul-08 10:01N 35°14' E 139°47'4 7.7
2018-Jul-08 09:30N 35°10' E 139°47'4 7.3
2018-Jul-08 09:00N 35°14' E 139°46'714.4
2018-Jul-08 08:31N 35°20' E 139°42'713.5
2018-Jul-08 08:00N 35°27' E 139°41'1 0.1
2018-Jul-07 13:40N 35°27' E 139°40'0 0.0
2018-Jul-07 13:30N 35°27' E 139°40'4 7.4
2018-Jul-07 13:00N 35°26' E 139°44'3 6.8
2018-Jul-07 12:30N 35°23' E 139°46'612.0
2018-Jul-07 12:00N 35°17' E 139°45'611.6
2018-Jul-07 11:30N 35°11' E 139°47'1 2.2
2018-Jul-07 11:00N 35°10' E 139°47'3 5.4
2018-Jul-07 10:30N 35°13' E 139°46'611.4
2018-Jul-07 10:00N 35°18' E 139°44'5 9.5
2018-Jul-07 09:30N 35°23' E 139°41'1 1.9
2018-Jul-07 09:00N 35°23' E 139°40'0 0.2
2018-Jul-07 08:31N 35°23' E 139°40'1 2.7
2018-Jul-07 08:01N 35°22' E 139°41'4 7.5
2018-Jul-07 07:30N 35°19' E 139°38'0 0.0
2018-Jul-07 07:00N 35°19' E 139°38'0 0.0
2018-Jul-06 22:37N 35°19' E 139°38'0 3.3
2018-Jul-06 22:30N 35°18' E 139°39'4 7.6
2018-Jul-06 21:59N 35°19' E 139°44'611.8
2018-Jul-06 21:30N 35°14' E 139°47'4 7.4
2018-Jul-06 20:59N 35°10' E 139°48'611.6
2018-Jul-06 20:30N 35°16' E 139°45'612.2
2018-Jul-06 20:01N 35°18' E 139°39'0 0.4
2018-Jul-06 19:30N 35°19' E 139°38'  
Track history (hours):
 
Tides and Currents Weather Stations Pressure Air Temp Water Temp Dewpoint Dewpoint Depression Visibility Wind Speed Wind Dir Waves Ship Positions

Orion

Last reported at 2018-Jul-15 21:30 UTC. Time now 2018-Jul-16 10:34 UTC.
Position N 35°27' E 139°40'.

Length 30 m; draft 2.9 m.

Type: Pilot. MMSI: 431001618.

Date/timePositionNaut miles runAvg speedWind from/ knotsBaromVisibWave heightAir tempDewpointWater temp
2018-Jul-15 21:30N 35°27' E 139°40'5 9.9
2018-Jul-15 21:00N 35°25' E 139°46'510.5
2018-Jul-15 20:30N 35°20' E 139°44'611.7
2018-Jul-15 20:00N 35°15' E 139°47'510.4
2018-Jul-15 19:30N 35°10' E 139°47'510.7
2018-Jul-15 19:00N 35°15' E 139°45'612.1
2018-Jul-15 18:30N 35°19' E 139°40'1 1.0
2018-Jul-15 18:00N 35°19' E 139°39'0 0.0
2018-Jul-15 12:45N 35°19' E 139°39'1 5.4
2018-Jul-15 12:30N 35°19' E 139°41'713.1
2018-Jul-15 12:00N 35°13' E 139°45'3 6.1
2018-Jul-15 11:30N 35°17' E 139°45'611.4
2018-Jul-15 11:00N 35°22' E 139°42'3 6.0
2018-Jul-15 10:30N 35°24' E 139°44'2 3.8
2018-Jul-15 10:00N 35°26' E 139°43'3 5.4
2018-Jul-15 09:30N 35°27' E 139°40'0 0.0
2018-Jul-15 09:00N 35°27' E 139°40'0 0.0
2018-Jul-15 08:30N 35°27' E 139°40'0 0.0
2018-Jul-14 11:26N 35°27' E 139°40'2 5.6
2018-Jul-14 11:01N 35°25' E 139°42'714.2
2018-Jul-14 10:31N 35°18' E 139°43'612.1
2018-Jul-14 10:00N 35°13' E 139°46'611.5
2018-Jul-14 09:30N 35°18' E 139°44'612.5
2018-Jul-14 09:01N 35°24' E 139°43'2 4.1
2018-Jul-14 08:30N 35°25' E 139°45'4 7.2
2018-Jul-14 08:01N 35°27' E 139°42'2 3.3
2018-Jul-14 07:30N 35°27' E 139°40'0 0.0
2018-Jul-14 07:00N 35°27' E 139°40'0 0.0
2018-Jul-14 06:30N 35°27' E 139°40'0 0.0
2018-Jul-14 06:00N 35°27' E 139°40'0 0.0
2018-Jul-14 05:30N 35°27' E 139°40'3 5.0
2018-Jul-14 05:00N 35°25' E 139°42'815.0
2018-Jul-14 04:30N 35°18' E 139°43'510.1
2018-Jul-14 04:00N 35°13' E 139°46'612.0
2018-Jul-14 03:31N 35°19' E 139°43'5 9.8
2018-Jul-14 03:01N 35°23' E 139°41'1 1.9
2018-Jul-14 02:30N 35°24' E 139°42'3 6.2
2018-Jul-14 02:00N 35°27' E 139°40'0 0.0
2018-Jul-14 01:29N 35°27' E 139°40'0 0.0
2018-Jul-14 01:00N 35°27' E 139°40'0 0.0
2018-Jul-14 00:30N 35°27' E 139°40'0 0.0
2018-Jul-14 00:00N 35°27' E 139°40'0 0.0
2018-Jul-13 23:30N 35°27' E 139°40'0 0.0
2018-Jul-13 23:00N 35°27' E 139°40'0 0.0
2018-Jul-13 22:30N 35°27' E 139°40'0 0.0
2018-Jul-13 21:59N 35°27' E 139°40'0 0.0
2018-Jul-13 21:30N 35°27' E 139°40'0 0.0
2018-Jul-13 21:00N 35°27' E 139°40'0 0.0
2018-Jul-13 20:30N 35°27' E 139°40'0 0.0
2018-Jul-13 20:00N 35°27' E 139°40'0 0.0
2018-Jul-13 19:30N 35°27' E 139°40'0 0.0
2018-Jul-13 19:00N 35°27' E 139°40'0 0.0
2018-Jul-13 18:30N 35°27' E 139°40'0 0.0
2018-Jul-13 18:00N 35°27' E 139°40'0 0.0
2018-Jul-13 17:30N 35°27' E 139°40'0 0.0
2018-Jul-13 17:00N 35°27' E 139°40'0 0.0
2018-Jul-13 16:30N 35°27' E 139°40'0 0.0
2018-Jul-13 16:00N 35°27' E 139°40'0 0.0
2018-Jul-13 15:30N 35°27' E 139°40'0 0.0
2018-Jul-13 15:00N 35°27' E 139°40'0 0.0
2018-Jul-13 14:30N 35°27' E 139°40'0 0.0
2018-Jul-13 13:30N 35°27' E 139°40'0 0.0
2018-Jul-13 13:00N 35°27' E 139°40'0 0.0
2018-Jul-13 12:30N 35°27' E 139°40'0 0.0
2018-Jul-13 12:00N 35°27' E 139°40'0 0.0
2018-Jul-13 11:30N 35°27' E 139°40'0 0.0
2018-Jul-13 11:00N 35°27' E 139°40'0 0.0
2018-Jul-13 10:30N 35°27' E 139°40'0 0.0
2018-Jul-13 10:00N 35°27' E 139°40'0 0.0
2018-Jul-13 09:30N 35°27' E 139°40'0 0.0
2018-Jul-13 09:00N 35°27' E 139°40'0 0.1
2018-Jul-13 08:30N 35°27' E 139°40'510.5
2018-Jul-13 08:01N 35°22' E 139°42'815.3
2018-Jul-13 07:31N 35°15' E 139°46'1 1.6
2018-Jul-13 07:00N 35°14' E 139°46'3 5.4
2018-Jul-13 06:30N 35°17' E 139°45'3 6.5
2018-Jul-13 06:01N 35°19' E 139°43'611.5
2018-Jul-13 05:30N 35°25' E 139°46'510.5
2018-Jul-13 05:00N 35°20' E 139°44'611.2
2018-Jul-13 04:30N 35°15' E 139°47'4 8.5
2018-Jul-13 04:01N 35°10' E 139°47'4 8.7
2018-Jul-13 03:30N 35°15' E 139°46'612.7
2018-Jul-13 03:00N 35°20' E 139°42'613.0
2018-Jul-13 02:30N 35°27' E 139°41'1 2.7
2018-Jul-13 02:00N 35°27' E 139°40'0 0.0
2018-Jul-13 01:30N 35°27' E 139°40'0 0.0
2018-Jul-13 01:00N 35°27' E 139°40'0 0.0
2018-Jul-13 00:30N 35°27' E 139°40'0 0.0
2018-Jul-12 23:59N 35°27' E 139°40'0 0.0
2018-Jul-12 23:30N 35°27' E 139°40'0 0.0
2018-Jul-12 23:00N 35°27' E 139°40'0 0.0
2018-Jul-12 22:30N 35°27' E 139°40'0 0.0
2018-Jul-12 22:01N 35°27' E 139°40'0 0.0
2018-Jul-12 21:30N 35°27' E 139°40'0 0.0
2018-Jul-12 21:01N 35°27' E 139°40'0 0.0
2018-Jul-12 20:31N 35°27' E 139°40'0 0.0
2018-Jul-12 19:59N 35°27' E 139°40'0 0.0
2018-Jul-12 19:30N 35°27' E 139°40'0 0.0
2018-Jul-12 19:01N 35°27' E 139°40'0 0.0
2018-Jul-12 18:31N 35°27' E 139°40'0 0.0
2018-Jul-12 18:01N 35°27' E 139°40'0 0.0
2018-Jul-12 17:31N 35°27' E 139°40'0 0.0
2018-Jul-12 16:59N 35°27' E 139°40'0 0.0
2018-Jul-12 16:30N 35°27' E 139°40'0 0.0
2018-Jul-12 16:00N 35°27' E 139°40'0 0.0
2018-Jul-12 15:30N 35°27' E 139°40'0 0.0
2018-Jul-12 15:00N 35°27' E 139°40'0 0.0
2018-Jul-12 14:30N 35°27' E 139°40'0 0.0
2018-Jul-12 14:00N 35°27' E 139°40'0 0.0
2018-Jul-12 13:30N 35°27' E 139°40'0 0.0
2018-Jul-12 13:01N 35°27' E 139°40'5 9.3
2018-Jul-12 12:31N 35°22' E 139°42'612.1
2018-Jul-12 12:00N 35°17' E 139°45'612.1
2018-Jul-12 11:30N 35°11' E 139°47'1 2.9
2018-Jul-12 11:00N 35°12' E 139°46'713.5
2018-Jul-12 10:30N 35°18' E 139°42'2 4.9
2018-Jul-12 10:00N 35°19' E 139°39'0 0.0
2018-Jul-12 09:30N 35°19' E 139°39'0 0.0
2018-Jul-12 09:00N 35°19' E 139°39'0 0.1
2018-Jul-12 08:30N 35°19' E 139°39'0 0.0
2018-Jul-12 08:00N 35°19' E 139°39'0 0.1
2018-Jul-12 07:30N 35°19' E 139°39'0 0.0
2018-Jul-12 07:00N 35°19' E 139°39'0 0.0
2018-Jul-12 06:30N 35°19' E 139°39'0 0.0
2018-Jul-12 06:00N 35°19' E 139°39'0 0.0
2018-Jul-12 05:30N 35°19' E 139°39'0 0.0
2018-Jul-12 05:00N 35°19' E 139°39'0 0.0
2018-Jul-12 04:30N 35°19' E 139°39'0 0.0
2018-Jul-12 04:00N 35°19' E 139°39'1 3.0
2018-Jul-12 03:30N 35°19' E 139°41'713.9
2018-Jul-12 02:59N 35°13' E 139°46'3 5.9
2018-Jul-12 02:30N 35°16' E 139°46'4 8.8
2018-Jul-12 02:00N 35°19' E 139°43'4 7.9
2018-Jul-12 01:30N 35°23' E 139°42'4 9.0
2018-Jul-12 01:01N 35°27' E 139°40'1 1.6
2018-Jul-12 00:30N 35°27' E 139°40'0 0.1
2018-Jul-12 00:00N 35°27' E 139°40'0 0.0
2018-Jul-11 23:29N 35°27' E 139°40'0 0.0
2018-Jul-11 23:00N 35°27' E 139°40'0 0.0
2018-Jul-11 22:30N 35°27' E 139°40'0 0.0
2018-Jul-11 22:00N 35°27' E 139°40'0 0.0
2018-Jul-11 21:30N 35°27' E 139°40'0 0.0
2018-Jul-11 21:00N 35°27' E 139°40'0 0.0
2018-Jul-11 20:30N 35°27' E 139°40'0 0.0
2018-Jul-11 20:00N 35°27' E 139°40'0 0.0
2018-Jul-11 19:30N 35°27' E 139°40'0 0.0
2018-Jul-11 19:00N 35°27' E 139°40'0 0.0
2018-Jul-11 18:30N 35°27' E 139°40'0 0.0
2018-Jul-11 18:00N 35°27' E 139°40'0 0.0
2018-Jul-11 17:30N 35°27' E 139°40'0 0.0
2018-Jul-11 17:00N 35°27' E 139°40'0 0.0
2018-Jul-11 16:30N 35°27' E 139°40'0 0.0
2018-Jul-11 16:00N 35°27' E 139°40'0 0.0
2018-Jul-11 15:30N 35°27' E 139°40'0 0.0
2018-Jul-11 15:00N 35°27' E 139°40'0 0.0
2018-Jul-11 14:30N 35°27' E 139°40'0 0.0
2018-Jul-10 08:18N 35°27' E 139°40'2 7.0
2018-Jul-10 08:01N 35°27' E 139°42'714.5
2018-Jul-10 07:30N 35°19' E 139°41'713.8
2018-Jul-10 07:00N 35°14' E 139°46'2 4.4
2018-Jul-10 06:30N 35°16' E 139°46'611.6
2018-Jul-10 06:00N 35°21' E 139°42'611.3
2018-Jul-10 05:30N 35°26' E 139°44'3 5.1
2018-Jul-10 05:00N 35°29' E 139°45'1 1.8
2018-Jul-10 04:30N 35°28' E 139°44'4 8.0
2018-Jul-10 04:00N 35°27' E 139°40'0 0.0
2018-Jul-10 03:30N 35°27' E 139°40'0 0.0
2018-Jul-10 03:00N 35°27' E 139°40'0 0.0
2018-Jul-10 02:30N 35°27' E 139°40'0 0.0
2018-Jul-10 01:59N 35°27' E 139°40'0 0.0
2018-Jul-10 01:31N 35°27' E 139°40'0 0.0
2018-Jul-10 01:01N 35°27' E 139°40'0 0.0
2018-Jul-10 00:30N 35°27' E 139°40'0 0.0
2018-Jul-10 00:00N 35°27' E 139°40'3 5.9
2018-Jul-09 23:30N 35°24' E 139°42'714.4
2018-Jul-09 23:00N 35°17' E 139°44'4 8.8
2018-Jul-09 22:30N 35°13' E 139°46'611.5
2018-Jul-09 22:00N 35°19' E 139°43'612.8
2018-Jul-09 21:30N 35°25' E 139°44'1 2.8
2018-Jul-09 20:59N 35°25' E 139°45'4 7.7
2018-Jul-09 20:30N 35°22' E 139°43'4 8.0
2018-Jul-09 20:00N 35°19' E 139°39'0 0.0
2018-Jul-09 19:30N 35°19' E 139°39'0 0.0
2018-Jul-09 18:59N 35°19' E 139°39'0 0.0
2018-Jul-09 18:30N 35°19' E 139°39'0 0.0
2018-Jul-09 18:00N 35°19' E 139°39'0 0.0
2018-Jul-09 17:29N 35°19' E 139°39'0 0.0
2018-Jul-09 16:59N 35°19' E 139°39'0 0.0
2018-Jul-09 16:30N 35°19' E 139°39'0 0.1
2018-Jul-09 16:00N 35°19' E 139°39'0 0.1
2018-Jul-09 15:30N 35°19' E 139°39'4 7.8
2018-Jul-09 15:00N 35°17' E 139°43'4 8.3
2018-Jul-09 14:30N 35°14' E 139°46'612.1
2018-Jul-09 14:00N 35°19' E 139°43'4 8.5
2018-Jul-09 13:31N 35°23' E 139°41'1 1.9
2018-Jul-09 13:00N 35°24' E 139°40'2 4.0
2018-Jul-09 12:30N 35°25' E 139°42'3 5.6
2018-Jul-09 12:00N 35°27' E 139°40'0 0.0
2018-Jul-09 11:30N 35°27' E 139°40'0 0.0
2018-Jul-09 11:00N 35°27' E 139°40'0 0.0
2018-Jul-09 10:30N 35°27' E 139°40'0 0.0
2018-Jul-09 10:00N 35°27' E 139°40'0 0.0
2018-Jul-09 09:30N 35°27' E 139°40'0 0.0
2018-Jul-09 09:00N 35°27' E 139°40'0 0.0
2018-Jul-09 08:30N 35°27' E 139°40'0 0.0
2018-Jul-09 08:00N 35°27' E 139°40'0 0.0
2018-Jul-09 07:30N 35°27' E 139°40'0 0.0
2018-Jul-09 07:00N 35°27' E 139°40'0 0.0
2018-Jul-09 06:30N 35°27' E 139°40'0 0.0
2018-Jul-09 06:00N 35°27' E 139°40'0 0.0
2018-Jul-09 05:30N 35°27' E 139°40'0 0.0
2018-Jul-09 05:00N 35°27' E 139°40'0 0.0
2018-Jul-09 04:30N 35°27' E 139°40'4 7.6
2018-Jul-09 04:00N 35°23' E 139°42'612.2
2018-Jul-09 03:29N 35°18' E 139°45'612.0
2018-Jul-09 03:01N 35°12' E 139°47'1 1.1
2018-Jul-09 02:30N 35°11' E 139°47'713.0
2018-Jul-09 02:00N 35°17' E 139°43'4 7.6
2018-Jul-09 01:30N 35°19' E 139°39'0 0.0
2018-Jul-09 01:01N 35°19' E 139°39'0 0.0
2018-Jul-09 00:31N 35°19' E 139°39'0 0.0
2018-Jul-09 00:00N 35°19' E 139°39'0 0.0
2018-Jul-08 23:31N 35°19' E 139°39'0 0.0
2018-Jul-08 23:00N 35°19' E 139°39'0 0.0
2018-Jul-08 22:29N 35°19' E 139°39'2 3.2
2018-Jul-08 22:00N 35°19' E 139°41'4 7.0
2018-Jul-08 21:30N 35°18' E 139°45'611.7
2018-Jul-08 21:00N 35°12' E 139°47'1 2.7
2018-Jul-08 20:30N 35°11' E 139°47'714.0
2018-Jul-08 19:59N 35°17' E 139°43'4 7.9
2018-Jul-08 19:31N 35°19' E 139°39'0 0.0
2018-Jul-08 19:01N 35°19' E 139°39'0 0.0
2018-Jul-08 18:30N 35°19' E 139°39'0 0.0
2018-Jul-08 18:00N 35°19' E 139°39'0 0.0
2018-Jul-08 17:31N 35°19' E 139°39'0 0.0
2018-Jul-08 17:00N 35°19' E 139°39'0 0.0
2018-Jul-08 16:28N 35°19' E 139°39'0 0.1
2018-Jul-08 16:01N 35°19' E 139°39'0 0.1
2018-Jul-08 15:31N 35°19' E 139°39'0 0.0
2018-Jul-08 15:00N 35°19' E 139°39'0 0.0
2018-Jul-08 14:30N 35°19' E 139°39'0 0.0
2018-Jul-08 14:00N 35°19' E 139°39'0 0.0
2018-Jul-08 13:30N 35°19' E 139°39'0 0.0
2018-Jul-08 13:01N 35°19' E 139°39'0 0.1
2018-Jul-08 12:30N 35°19' E 139°39'0 0.1
2018-Jul-08 12:00N 35°19' E 139°39'0 0.0
2018-Jul-08 11:31N 35°19' E 139°39'1 1.7
2018-Jul-08 11:00N 35°19' E 139°40'3 5.3
2018-Jul-08 10:30N 35°19' E 139°43'612.5
2018-Jul-08 10:01N 35°14' E 139°47'4 7.7
2018-Jul-08 09:30N 35°10' E 139°47'4 7.3
2018-Jul-08 09:00N 35°14' E 139°46'714.4
2018-Jul-08 08:31N 35°20' E 139°42'713.5
2018-Jul-08 08:00N 35°27' E 139°41'1 0.1
2018-Jul-07 13:40N 35°27' E 139°40'0 0.0
2018-Jul-07 13:30N 35°27' E 139°40'4 7.4
2018-Jul-07 13:00N 35°26' E 139°44'3 6.8
2018-Jul-07 12:30N 35°23' E 139°46'612.0
2018-Jul-07 12:00N 35°17' E 139°45'611.6
2018-Jul-07 11:30N 35°11' E 139°47'1 2.2
2018-Jul-07 11:00N 35°10' E 139°47'3 5.4
2018-Jul-07 10:30N 35°13' E 139°46'611.4
2018-Jul-07 10:00N 35°18' E 139°44'5 9.5
2018-Jul-07 09:30N 35°23' E 139°41'1 1.9
2018-Jul-07 09:00N 35°23' E 139°40'0 0.2
2018-Jul-07 08:31N 35°23' E 139°40'1 2.7
2018-Jul-07 08:01N 35°22' E 139°41'4 7.5
2018-Jul-07 07:30N 35°19' E 139°38'0 0.0
2018-Jul-07 07:00N 35°19' E 139°38'0 0.0
2018-Jul-06 22:37N 35°19' E 139°38'0 3.3
2018-Jul-06 22:30N 35°18' E 139°39'4 7.6
2018-Jul-06 21:59N 35°19' E 139°44'611.8
2018-Jul-06 21:30N 35°14' E 139°47'4 7.4
2018-Jul-06 20:59N 35°10' E 139°48'611.6
2018-Jul-06 20:30N 35°16' E 139°45'612.2
2018-Jul-06 20:01N 35°18' E 139°39'0 0.4
2018-Jul-06 19:30N 35°19' E 139°38'  

Dump ship's entire track history